PWSweather.com
Personal Weather Stations
Station Observations
CAPEBRETON
Mira Road, Sydney, NS

Mira RoadSydney, NS

Lat: 46.1207292, Lon: -60.1594642

Elevation: 175

Station Type: LaCrosse Weather Pro Center 2800 Series

http://pwscapebreton.weebly.com/

Latest ConditionsUpdated 9:57:50 PM GMT-04:56 Sunday, Dec 21, 2014
Currently Today's Max Today's Min Today's Average
Temperature 28.4°F-2.0°C 31.9°F-0.1°C 28.4°F-2.0°C 30.6°F-0.8°C
Dew Point 23.0°F-5.0°C 25.8°F-3.4°C 23.0°F-5.0°C 24.7°F-4.1°C
Winds 0.4 mph 0.6 kmh 2.0 mph N3.2 kmh N - 0.7 mph 1.1 kmh
Wind Gusts 1.1 mph1.8 kmh 3.8 mph6.1 kmh - -
Humidity 80% 81% 74% 78%
Pressure 30.34 in1027.4 mb 30.34 in1027.4 mb 30.23 in1023.7 mb -
Hour Temp Dew Point Humidity Winds Wind Gusts Pressure Precip Precip Rate Daily Precip Total
09:57 PM 28.4°F-2.0°C 23.0°F-5.0°C 80% 0.4 mph 0.6 kmh 1.1 mph1.8 kmh 30.34 in1027.4 mb 0.00 in0.0 mm 0.00 in/hr0.0 mm/hr 0.00 in0.0 mm
09:52 PM 28.4°F-2.0°C 23.0°F-5.0°C 80% 0.3 mph 0.5 kmh 1.1 mph1.8 kmh 30.34 in1027.4 mb 0.00 in0.0 mm 0.00 in/hr0.0 mm/hr 0.00 in0.0 mm
09:47 PM 28.4°F-2.0°C 23.0°F-5.0°C 80% 0.4 mph N0.6 kmh N 1.1 mph1.8 kmh 30.34 in1027.4 mb 0.00 in0.0 mm 0.00 in/hr0.0 mm/hr 0.00 in0.0 mm
09:42 PM 28.4°F-2.0°C 23.0°F-5.0°C 80% 0.5 mph N0.8 kmh N 1.1 mph1.8 kmh 30.33 in1027.1 mb 0.00 in0.0 mm 0.00 in/hr0.0 mm/hr 0.00 in0.0 mm
09:37 PM 28.4°F-2.0°C 23.0°F-5.0°C 80% 0.2 mph E0.3 kmh E 1.1 mph1.8 kmh 30.33 in1027.1 mb 0.00 in0.0 mm 0.00 in/hr0.0 mm/hr 0.00 in0.0 mm
09:32 PM 28.4°F-2.0°C 23.0°F-5.0°C 80% 0.5 mph 0.8 kmh 1.1 mph1.8 kmh 30.33 in1027.1 mb 0.00 in0.0 mm 0.00 in/hr0.0 mm/hr 0.00 in0.0 mm
09:27 PM 28.4°F-2.0°C 23.0°F-5.0°C 80% 0.6 mph N1.0 kmh N 1.1 mph1.8 kmh 30.33 in1027.1 mb 0.00 in0.0 mm 0.00 in/hr0.0 mm/hr 0.00 in0.0 mm
09:22 PM 28.4°F-2.0°C 23.0°F-5.0°C 80% 0.4 mph ESE0.6 kmh ESE 2.0 mph3.2 kmh 30.33 in1027.1 mb 0.00 in0.0 mm 0.00 in/hr0.0 mm/hr 0.00 in0.0 mm
09:17 PM 28.4°F-2.0°C 23.0°F-5.0°C 80% 0.4 mph ENE0.6 kmh ENE 2.0 mph3.2 kmh 30.34 in1027.4 mb 0.00 in0.0 mm 0.00 in/hr0.0 mm/hr 0.00 in0.0 mm
09:12 PM 28.4°F-2.0°C 23.0°F-5.0°C 80% 1.0 mph ESE1.6 kmh ESE 1.8 mph2.9 kmh 30.34 in1027.4 mb 0.00 in0.0 mm 0.00 in/hr0.0 mm/hr 0.00 in0.0 mm
09:07 PM 28.6°F-1.9°C 23.2°F-4.9°C 80% 0.7 mph 1.1 kmh 3.1 mph5.0 kmh 30.34 in1027.4 mb 0.00 in0.0 mm 0.00 in/hr0.0 mm/hr 0.00 in0.0 mm
09:02 PM 28.6°F-1.9°C 23.2°F-4.9°C 80% 1.7 mph E2.7 kmh E 3.1 mph5.0 kmh 30.34 in1027.4 mb 0.00 in0.0 mm 0.00 in/hr0.0 mm/hr 0.00 in0.0 mm
08:57 PM 28.6°F-1.9°C 23.5°F-4.7°C 81% 0.6 mph N1.0 kmh N 1.1 mph1.8 kmh 30.34 in1027.4 mb 0.00 in0.0 mm 0.00 in/hr0.0 mm/hr 0.00 in0.0 mm
08:52 PM 28.6°F-1.9°C 23.2°F-4.9°C 80% 0.2 mph E0.3 kmh E 2.0 mph3.2 kmh 30.33 in1027.1 mb 0.00 in0.0 mm 0.00 in/hr0.0 mm/hr 0.00 in0.0 mm
08:47 PM 28.6°F-1.9°C 23.2°F-4.9°C 80% 0.8 mph NE1.3 kmh NE 2.0 mph3.2 kmh 30.34 in1027.4 mb 0.00 in0.0 mm 0.00 in/hr0.0 mm/hr 0.00 in0.0 mm
08:42 PM 28.6°F-1.9°C 23.2°F-4.9°C 80% 0.9 mph SE1.4 kmh SE 1.6 mph2.6 kmh 30.34 in1027.4 mb 0.00 in0.0 mm 0.00 in/hr0.0 mm/hr 0.00 in0.0 mm
08:37 PM 28.8°F-1.8°C 23.4°F-4.8°C 80% 0.5 mph NE0.8 kmh NE 1.3 mph2.1 kmh 30.34 in1027.4 mb 0.00 in0.0 mm 0.00 in/hr0.0 mm/hr 0.00 in0.0 mm
08:32 PM 28.8°F-1.8°C 23.4°F-4.8°C 80% 0.5 mph N0.8 kmh N 1.8 mph2.9 kmh 30.34 in1027.4 mb 0.00 in0.0 mm 0.00 in/hr0.0 mm/hr 0.00 in0.0 mm
08:27 PM 28.8°F-1.8°C 23.4°F-4.8°C 80% 1.3 mph N2.1 kmh N 2.5 mph4.0 kmh 30.33 in1027.1 mb 0.00 in0.0 mm 0.00 in/hr0.0 mm/hr 0.00 in0.0 mm
08:22 PM 28.8°F-1.8°C 23.1°F-4.9°C 79% 1.0 mph 1.6 kmh 2.5 mph4.0 kmh 30.34 in1027.4 mb 0.00 in0.0 mm 0.00 in/hr0.0 mm/hr 0.00 in0.0 mm
08:17 PM 29.0°F-1.7°C 23.6°F-4.7°C 80% 1.7 mph N2.7 kmh N 2.5 mph4.0 kmh 30.33 in1027.1 mb 0.00 in0.0 mm 0.00 in/hr0.0 mm/hr 0.00 in0.0 mm
08:12 PM 29.2°F-1.6°C 24.0°F-4.4°C 81% 0.9 mph N1.4 kmh N 1.8 mph2.9 kmh 30.33 in1027.1 mb 0.00 in0.0 mm 0.00 in/hr0.0 mm/hr 0.00 in0.0 mm
08:07 PM 29.2°F-1.6°C 24.0°F-4.4°C 81% 1.0 mph N1.6 kmh N 1.8 mph2.9 kmh 30.33 in1027.1 mb 0.00 in0.0 mm 0.00 in/hr0.0 mm/hr 0.00 in0.0 mm
08:02 PM 29.2°F-1.6°C 24.0°F-4.4°C 81% 0.4 mph N0.6 kmh N 1.8 mph2.9 kmh 30.33 in1027.1 mb 0.00 in0.0 mm 0.00 in/hr0.0 mm/hr 0.00 in0.0 mm
07:57 PM 29.2°F-1.6°C 24.0°F-4.4°C 81% 1.3 mph 2.1 kmh 1.8 mph2.9 kmh 30.33 in1027.1 mb 0.00 in0.0 mm 0.00 in/hr0.0 mm/hr 0.00 in0.0 mm
07:52 PM 29.3°F-1.5°C 24.2°F-4.3°C 81% 0.7 mph N1.1 kmh N 2.5 mph4.0 kmh 30.33 in1027.1 mb 0.00 in0.0 mm 0.00 in/hr0.0 mm/hr 0.00 in0.0 mm
07:47 PM 29.3°F-1.5°C 23.9°F-4.5°C 80% 0.9 mph E1.4 kmh E 2.5 mph4.0 kmh 30.33 in1027.1 mb 0.00 in0.0 mm 0.00 in/hr0.0 mm/hr 0.00 in0.0 mm
07:42 PM 29.5°F-1.4°C 24.4°F-4.2°C 81% 0.4 mph NE0.6 kmh NE 1.3 mph2.1 kmh 30.32 in1026.8 mb 0.00 in0.0 mm 0.00 in/hr0.0 mm/hr 0.00 in0.0 mm
07:37 PM 29.5°F-1.4°C 24.4°F-4.2°C 81% Calm Calm 1.6 mph2.6 kmh 30.32 in1026.8 mb 0.00 in0.0 mm 0.00 in/hr0.0 mm/hr 0.00 in0.0 mm
07:32 PM 29.5°F-1.4°C 24.4°F-4.2°C 81% 0.8 mph 1.3 kmh 1.6 mph2.6 kmh 30.32 in1026.8 mb 0.00 in0.0 mm 0.00 in/hr0.0 mm/hr 0.00 in0.0 mm
07:27 PM 29.5°F-1.4°C 24.4°F-4.2°C 81% 0.6 mph NE1.0 kmh NE 1.6 mph2.6 kmh 30.32 in1026.8 mb 0.00 in0.0 mm 0.00 in/hr0.0 mm/hr 0.00 in0.0 mm
07:22 PM 29.5°F-1.4°C 24.4°F-4.2°C 81% 0.6 mph 1.0 kmh 1.6 mph2.6 kmh 30.32 in1026.8 mb 0.00 in0.0 mm 0.00 in/hr0.0 mm/hr 0.00 in0.0 mm
07:17 PM 29.5°F-1.4°C 24.4°F-4.2°C 81% 0.8 mph ENE1.3 kmh ENE 1.6 mph2.6 kmh 30.32 in1026.8 mb 0.00 in0.0 mm 0.00 in/hr0.0 mm/hr 0.00 in0.0 mm
07:12 PM 29.7°F-1.3°C 24.6°F-4.1°C 81% 0.4 mph 0.6 kmh 1.3 mph2.1 kmh 30.32 in1026.8 mb 0.00 in0.0 mm 0.00 in/hr0.0 mm/hr 0.00 in0.0 mm
07:07 PM 29.7°F-1.3°C 24.3°F-4.3°C 80% 0.8 mph 1.3 kmh 1.6 mph2.6 kmh 30.32 in1026.8 mb 0.00 in0.0 mm 0.00 in/hr0.0 mm/hr 0.00 in0.0 mm
07:02 PM 29.7°F-1.3°C 24.3°F-4.3°C 80% 0.9 mph ENE1.4 kmh ENE 2.2 mph3.5 kmh 30.32 in1026.8 mb 0.00 in0.0 mm 0.00 in/hr0.0 mm/hr 0.00 in0.0 mm
06:57 PM 29.7°F-1.3°C 24.3°F-4.3°C 80% 0.7 mph N1.1 kmh N 2.2 mph3.5 kmh 30.32 in1026.8 mb 0.00 in0.0 mm 0.00 in/hr0.0 mm/hr 0.00 in0.0 mm
06:52 PM 29.9°F-1.2°C 24.5°F-4.2°C 80% 0.7 mph 1.1 kmh 2.0 mph3.2 kmh 30.32 in1026.8 mb 0.00 in0.0 mm 0.00 in/hr0.0 mm/hr 0.00 in0.0 mm
06:47 PM 29.9°F-1.2°C 24.8°F-4.0°C 81% 1.3 mph N2.1 kmh N 2.0 mph3.2 kmh 30.32 in1026.8 mb 0.00 in0.0 mm 0.00 in/hr0.0 mm/hr 0.00 in0.0 mm
06:42 PM 29.9°F-1.2°C 24.5°F-4.2°C 80% 0.8 mph NE1.3 kmh NE 1.6 mph2.6 kmh 30.32 in1026.8 mb 0.00 in0.0 mm 0.00 in/hr0.0 mm/hr 0.00 in0.0 mm
06:37 PM 29.9°F-1.2°C 24.5°F-4.2°C 80% 0.6 mph 1.0 kmh 1.6 mph2.6 kmh 30.31 in1026.4 mb 0.00 in0.0 mm 0.00 in/hr0.0 mm/hr 0.00 in0.0 mm
06:32 PM 29.9°F-1.2°C 24.5°F-4.2°C 80% 0.4 mph N0.6 kmh N 1.1 mph1.8 kmh 30.31 in1026.4 mb 0.00 in0.0 mm 0.00 in/hr0.0 mm/hr 0.00 in0.0 mm
06:27 PM 29.9°F-1.2°C 24.5°F-4.2°C 80% 0.6 mph 1.0 kmh 1.1 mph1.8 kmh 30.31 in1026.4 mb 0.00 in0.0 mm 0.00 in/hr0.0 mm/hr 0.00 in0.0 mm
06:22 PM 29.9°F-1.2°C 24.1°F-4.4°C 79% 0.5 mph 0.8 kmh 2.9 mph4.7 kmh 30.31 in1026.4 mb 0.00 in0.0 mm 0.00 in/hr0.0 mm/hr 0.00 in0.0 mm
06:17 PM 29.9°F-1.2°C 24.1°F-4.4°C 79% 0.7 mph 1.1 kmh 2.9 mph4.7 kmh 30.31 in1026.4 mb 0.00 in0.0 mm 0.00 in/hr0.0 mm/hr 0.00 in0.0 mm
06:12 PM 29.9°F-1.2°C 24.1°F-4.4°C 79% 0.4 mph 0.6 kmh 2.0 mph3.2 kmh 30.31 in1026.4 mb 0.00 in0.0 mm 0.00 in/hr0.0 mm/hr 0.00 in0.0 mm
06:07 PM 29.9°F-1.2°C 24.1°F-4.4°C 79% 1.2 mph N1.9 kmh N 2.0 mph3.2 kmh 30.31 in1026.4 mb 0.00 in0.0 mm 0.00 in/hr0.0 mm/hr 0.00 in0.0 mm
06:02 PM 29.9°F-1.2°C 24.1°F-4.4°C 79% 0.7 mph 1.1 kmh 0.9 mph1.4 kmh 30.31 in1026.4 mb 0.00 in0.0 mm 0.00 in/hr0.0 mm/hr 0.00 in0.0 mm
05:57 PM 29.9°F-1.2°C 24.1°F-4.4°C 79% 0.5 mph NNE0.8 kmh NNE 1.8 mph2.9 kmh 30.31 in1026.4 mb 0.00 in0.0 mm 0.00 in/hr0.0 mm/hr 0.00 in0.0 mm
05:52 PM 29.9°F-1.2°C 24.1°F-4.4°C 79% 0.7 mph 1.1 kmh 1.8 mph2.9 kmh 30.31 in1026.4 mb 0.00 in0.0 mm 0.00 in/hr0.0 mm/hr 0.00 in0.0 mm
05:47 PM 30.1°F-1.1°C 24.3°F-4.3°C 79% 1.1 mph NNW1.8 kmh NNW 1.8 mph2.9 kmh 30.31 in1026.4 mb 0.00 in0.0 mm 0.00 in/hr0.0 mm/hr 0.00 in0.0 mm
05:42 PM 30.1°F-1.1°C 24.3°F-4.3°C 79% 0.5 mph N0.8 kmh N 1.6 mph2.6 kmh 30.31 in1026.4 mb 0.00 in0.0 mm 0.00 in/hr0.0 mm/hr 0.00 in0.0 mm
05:37 PM 30.1°F-1.1°C 24.3°F-4.3°C 79% 0.8 mph N1.3 kmh N 2.2 mph3.5 kmh 30.31 in1026.4 mb 0.00 in0.0 mm 0.00 in/hr0.0 mm/hr 0.00 in0.0 mm
05:32 PM 30.1°F-1.1°C 24.3°F-4.3°C 79% 1.3 mph N2.1 kmh N 2.5 mph4.0 kmh 30.30 in1026.1 mb 0.00 in0.0 mm 0.00 in/hr0.0 mm/hr 0.00 in0.0 mm
05:27 PM 30.1°F-1.1°C 24.3°F-4.3°C 79% 0.7 mph N1.1 kmh N 2.5 mph4.0 kmh 30.31 in1026.4 mb 0.00 in0.0 mm 0.00 in/hr0.0 mm/hr 0.00 in0.0 mm
05:22 PM 30.1°F-1.1°C 24.3°F-4.3°C 79% 0.6 mph 1.0 kmh 1.1 mph1.8 kmh 30.30 in1026.1 mb 0.00 in0.0 mm 0.00 in/hr0.0 mm/hr 0.00 in0.0 mm
05:17 PM 30.1°F-1.1°C 24.3°F-4.3°C 79% 0.9 mph N1.4 kmh N 1.1 mph1.8 kmh 30.30 in1026.1 mb 0.00 in0.0 mm 0.00 in/hr0.0 mm/hr 0.00 in0.0 mm
05:12 PM 30.1°F-1.1°C 24.3°F-4.3°C 79% 0.8 mph NNE1.3 kmh NNE 1.3 mph2.1 kmh 30.30 in1026.1 mb 0.00 in0.0 mm 0.00 in/hr0.0 mm/hr 0.00 in0.0 mm
05:07 PM 30.1°F-1.1°C 24.3°F-4.3°C 79% 0.7 mph NE1.1 kmh NE 2.0 mph3.2 kmh 30.30 in1026.1 mb 0.00 in0.0 mm 0.00 in/hr0.0 mm/hr 0.00 in0.0 mm
05:02 PM 30.1°F-1.1°C 24.3°F-4.3°C 79% 1.4 mph N2.3 kmh N 2.0 mph3.2 kmh 30.30 in1026.1 mb 0.00 in0.0 mm 0.00 in/hr0.0 mm/hr 0.00 in0.0 mm
04:57 PM 30.1°F-1.1°C 24.3°F-4.3°C 79% 0.9 mph 1.4 kmh 2.9 mph4.7 kmh 30.30 in1026.1 mb 0.00 in0.0 mm 0.00 in/hr0.0 mm/hr 0.00 in0.0 mm
04:52 PM 30.1°F-1.1°C 24.3°F-4.3°C 79% 1.0 mph N1.6 kmh N 2.9 mph4.7 kmh 30.30 in1026.1 mb 0.00 in0.0 mm 0.00 in/hr0.0 mm/hr 0.00 in0.0 mm
04:47 PM 30.2°F-1.0°C 24.5°F-4.2°C 79% 1.4 mph WSW2.3 kmh WSW 3.4 mph5.5 kmh 30.30 in1026.1 mb 0.00 in0.0 mm 0.00 in/hr0.0 mm/hr 0.00 in0.0 mm
04:41 PM 30.2°F-1.0°C 24.5°F-4.2°C 79% 1.8 mph NNE2.9 kmh NNE 3.4 mph5.5 kmh 30.30 in1026.1 mb 0.00 in0.0 mm 0.00 in/hr0.0 mm/hr 0.00 in0.0 mm
04:36 PM 30.2°F-1.0°C 24.5°F-4.2°C 79% 1.2 mph N1.9 kmh N 2.2 mph3.5 kmh 30.30 in1026.1 mb 0.00 in0.0 mm 0.00 in/hr0.0 mm/hr 0.00 in0.0 mm
04:31 PM 30.2°F-1.0°C 24.5°F-4.2°C 79% 0.5 mph NNE0.8 kmh NNE 1.6 mph2.6 kmh 30.30 in1026.1 mb 0.00 in0.0 mm 0.00 in/hr0.0 mm/hr 0.00 in0.0 mm
04:26 PM 30.2°F-1.0°C 24.5°F-4.2°C 79% 0.6 mph NNE1.0 kmh NNE 2.0 mph3.2 kmh 30.30 in1026.1 mb 0.00 in0.0 mm 0.00 in/hr0.0 mm/hr 0.00 in0.0 mm
04:21 PM 30.4°F-0.9°C 24.7°F-4.1°C 79% 0.6 mph N1.0 kmh N 2.0 mph3.2 kmh 30.30 in1026.1 mb 0.00 in0.0 mm 0.00 in/hr0.0 mm/hr 0.00 in0.0 mm
04:16 PM 30.4°F-0.9°C 24.7°F-4.1°C 79% 1.4 mph N2.3 kmh N 2.0 mph3.2 kmh 30.30 in1026.1 mb 0.00 in0.0 mm 0.00 in/hr0.0 mm/hr 0.00 in0.0 mm
04:11 PM 30.4°F-0.9°C 24.7°F-4.1°C 79% 1.1 mph NE1.8 kmh NE 2.0 mph3.2 kmh 30.30 in1026.1 mb 0.00 in0.0 mm 0.00 in/hr0.0 mm/hr 0.00 in0.0 mm
04:06 PM 30.6°F-0.8°C 24.8°F-4.0°C 79% Calm Calm 1.3 mph2.1 kmh 30.29 in1025.7 mb 0.00 in0.0 mm 0.00 in/hr0.0 mm/hr 0.00 in0.0 mm
04:01 PM 30.4°F-0.9°C 24.4°F-4.2°C 78% 0.4 mph NNW0.6 kmh NNW 2.2 mph3.5 kmh 30.29 in1025.7 mb 0.00 in0.0 mm 0.00 in/hr0.0 mm/hr 0.00 in0.0 mm
03:56 PM 30.6°F-0.8°C 24.6°F-4.1°C 78% 0.6 mph E1.0 kmh E 2.2 mph3.5 kmh 30.29 in1025.7 mb 0.00 in0.0 mm 0.00 in/hr0.0 mm/hr 0.00 in0.0 mm
03:51 PM 30.6°F-0.8°C 24.6°F-4.1°C 78% 0.5 mph ENE0.8 kmh ENE 1.8 mph2.9 kmh 30.29 in1025.7 mb 0.00 in0.0 mm 0.00 in/hr0.0 mm/hr 0.00 in0.0 mm
03:46 PM 30.6°F-0.8°C 24.6°F-4.1°C 78% 1.5 mph NNE2.4 kmh NNE 3.8 mph6.1 kmh 30.29 in1025.7 mb 0.00 in0.0 mm 0.00 in/hr0.0 mm/hr 0.00 in0.0 mm
03:41 PM 30.8°F-0.7°C 24.8°F-4.0°C 78% 2.0 mph N3.2 kmh N 3.8 mph6.1 kmh 30.29 in1025.7 mb 0.00 in0.0 mm 0.00 in/hr0.0 mm/hr 0.00 in0.0 mm
03:36 PM 31.0°F-0.6°C 24.9°F-3.9°C 78% 0.7 mph E1.1 kmh E 1.1 mph1.8 kmh 30.29 in1025.7 mb 0.00 in0.0 mm 0.00 in/hr0.0 mm/hr 0.00 in0.0 mm
03:31 PM 31.0°F-0.6°C 24.9°F-3.9°C 78% 0.5 mph 0.8 kmh 0.7 mph1.1 kmh 30.29 in1025.7 mb 0.00 in0.0 mm 0.00 in/hr0.0 mm/hr 0.00 in0.0 mm
03:26 PM 31.0°F-0.6°C 24.9°F-3.9°C 78% 0.2 mph E0.3 kmh E 0.4 mph0.6 kmh 30.29 in1025.7 mb 0.00 in0.0 mm 0.00 in/hr0.0 mm/hr 0.00 in0.0 mm
03:21 PM 31.0°F-0.6°C 24.9°F-3.9°C 78% 0.4 mph 0.6 kmh 1.6 mph2.6 kmh 30.29 in1025.7 mb 0.00 in0.0 mm 0.00 in/hr0.0 mm/hr 0.00 in0.0 mm
03:16 PM 31.0°F-0.6°C 24.9°F-3.9°C 78% 0.2 mph 0.3 kmh 1.8 mph2.9 kmh 30.29 in1025.7 mb 0.00 in0.0 mm 0.00 in/hr0.0 mm/hr 0.00 in0.0 mm
03:11 PM 31.0°F-0.6°C 24.9°F-3.9°C 78% 0.5 mph NE0.8 kmh NE 1.8 mph2.9 kmh 30.29 in1025.7 mb 0.00 in0.0 mm 0.00 in/hr0.0 mm/hr 0.00 in0.0 mm
03:06 PM 31.0°F-0.6°C 24.9°F-3.9°C 78% 0.8 mph N1.3 kmh N 1.3 mph2.1 kmh 30.29 in1025.7 mb 0.00 in0.0 mm 0.00 in/hr0.0 mm/hr 0.00 in0.0 mm
03:01 PM 31.1°F-0.5°C 25.1°F-3.8°C 78% 0.5 mph NNE0.8 kmh NNE 3.1 mph5.0 kmh 30.29 in1025.7 mb 0.00 in0.0 mm 0.00 in/hr0.0 mm/hr 0.00 in0.0 mm
02:56 PM 31.1°F-0.5°C 25.1°F-3.8°C 78% 1.6 mph N2.6 kmh N 3.1 mph5.0 kmh 30.29 in1025.7 mb 0.00 in0.0 mm 0.00 in/hr0.0 mm/hr 0.00 in0.0 mm
02:51 PM 31.1°F-0.5°C 25.1°F-3.8°C 78% 0.5 mph NE0.8 kmh NE 1.6 mph2.6 kmh 30.29 in1025.7 mb 0.00 in0.0 mm 0.00 in/hr0.0 mm/hr 0.00 in0.0 mm
02:46 PM 31.3°F-0.4°C 25.3°F-3.7°C 78% 1.3 mph N2.1 kmh N 2.5 mph4.0 kmh 30.29 in1025.7 mb 0.00 in0.0 mm 0.00 in/hr0.0 mm/hr 0.00 in0.0 mm
02:41 PM 31.3°F-0.4°C 25.3°F-3.7°C 78% 1.4 mph NNE2.3 kmh NNE 2.5 mph4.0 kmh 30.28 in1025.4 mb 0.00 in0.0 mm 0.00 in/hr0.0 mm/hr 0.00 in0.0 mm
02:36 PM 31.3°F-0.4°C 25.3°F-3.7°C 78% 1.0 mph ESE1.6 kmh ESE 1.8 mph2.9 kmh 30.29 in1025.7 mb 0.00 in0.0 mm 0.00 in/hr0.0 mm/hr 0.00 in0.0 mm
02:31 PM 31.3°F-0.4°C 24.9°F-3.9°C 77% 0.9 mph E1.4 kmh E 1.8 mph2.9 kmh 30.28 in1025.4 mb 0.00 in0.0 mm 0.00 in/hr0.0 mm/hr 0.00 in0.0 mm
02:26 PM 31.3°F-0.4°C 24.9°F-3.9°C 77% 0.2 mph NNE0.3 kmh NNE 1.8 mph2.9 kmh 30.28 in1025.4 mb 0.00 in0.0 mm 0.00 in/hr0.0 mm/hr 0.00 in0.0 mm
02:21 PM 31.3°F-0.4°C 24.9°F-3.9°C 77% 0.2 mph NE0.3 kmh NE 1.8 mph2.9 kmh 30.28 in1025.4 mb 0.00 in0.0 mm 0.00 in/hr0.0 mm/hr 0.00 in0.0 mm
02:16 PM 31.3°F-0.4°C 24.9°F-3.9°C 77% 0.7 mph N1.1 kmh N 2.2 mph3.5 kmh 30.28 in1025.4 mb 0.00 in0.0 mm 0.00 in/hr0.0 mm/hr 0.00 in0.0 mm
02:11 PM 31.3°F-0.4°C 24.7°F-4.1°C 76% 0.9 mph N1.4 kmh N 2.2 mph3.5 kmh 30.28 in1025.4 mb 0.00 in0.0 mm 0.00 in/hr0.0 mm/hr 0.00 in0.0 mm
02:06 PM 31.3°F-0.4°C 24.9°F-3.9°C 77% 0.7 mph N1.1 kmh N 2.5 mph4.0 kmh 30.28 in1025.4 mb 0.00 in0.0 mm 0.00 in/hr0.0 mm/hr 0.00 in0.0 mm
02:01 PM 31.3°F-0.4°C 24.7°F-4.1°C 76% 0.6 mph E1.0 kmh E 3.4 mph5.5 kmh 30.28 in1025.4 mb 0.00 in0.0 mm 0.00 in/hr0.0 mm/hr 0.00 in0.0 mm
01:56 PM 31.3°F-0.4°C 24.7°F-4.1°C 76% 0.8 mph N1.3 kmh N 3.4 mph5.5 kmh 30.28 in1025.4 mb 0.00 in0.0 mm 0.00 in/hr0.0 mm/hr 0.00 in0.0 mm
01:51 PM 31.3°F-0.4°C 24.7°F-4.1°C 76% 0.7 mph NE1.1 kmh NE 1.8 mph2.9 kmh 30.28 in1025.4 mb 0.00 in0.0 mm 0.00 in/hr0.0 mm/hr 0.00 in0.0 mm
01:46 PM 31.3°F-0.4°C 24.7°F-4.1°C 76% 0.4 mph NE0.6 kmh NE 1.8 mph2.9 kmh 30.28 in1025.4 mb 0.00 in0.0 mm 0.00 in/hr0.0 mm/hr 0.00 in0.0 mm
01:41 PM 31.3°F-0.4°C 24.7°F-4.1°C 76% 0.5 mph NE0.8 kmh NE 1.8 mph2.9 kmh 30.28 in1025.4 mb 0.00 in0.0 mm 0.00 in/hr0.0 mm/hr 0.00 in0.0 mm
01:36 PM 31.5°F-0.3°C 24.9°F-3.9°C 76% 0.5 mph NNE0.8 kmh NNE 1.8 mph2.9 kmh 30.28 in1025.4 mb 0.00 in0.0 mm 0.00 in/hr0.0 mm/hr 0.00 in0.0 mm
01:31 PM 31.3°F-0.4°C 24.7°F-4.1°C 76% 0.6 mph NE1.0 kmh NE 1.6 mph2.6 kmh 30.28 in1025.4 mb 0.00 in0.0 mm 0.00 in/hr0.0 mm/hr 0.00 in0.0 mm
01:26 PM 31.3°F-0.4°C 24.7°F-4.1°C 76% 0.9 mph NNE1.4 kmh NNE 1.3 mph2.1 kmh 30.28 in1025.4 mb 0.00 in0.0 mm 0.00 in/hr0.0 mm/hr 0.00 in0.0 mm
01:21 PM 31.3°F-0.4°C 24.7°F-4.1°C 76% 0.7 mph N1.1 kmh N 2.5 mph4.0 kmh 30.28 in1025.4 mb 0.00 in0.0 mm 0.00 in/hr0.0 mm/hr 0.00 in0.0 mm
01:16 PM 31.3°F-0.4°C 24.3°F-4.3°C 75% 1.0 mph ESE1.6 kmh ESE 2.5 mph4.0 kmh 30.28 in1025.4 mb 0.00 in0.0 mm 0.00 in/hr0.0 mm/hr 0.00 in0.0 mm
01:11 PM 31.3°F-0.4°C 24.7°F-4.1°C 76% 0.8 mph NNE1.3 kmh NNE 2.5 mph4.0 kmh 30.28 in1025.4 mb 0.00 in0.0 mm 0.00 in/hr0.0 mm/hr 0.00 in0.0 mm
01:06 PM 31.3°F-0.4°C 24.7°F-4.1°C 76% 1.4 mph N2.3 kmh N 2.5 mph4.0 kmh 30.28 in1025.4 mb 0.00 in0.0 mm 0.00 in/hr0.0 mm/hr 0.00 in0.0 mm
01:01 PM 31.3°F-0.4°C 24.7°F-4.1°C 76% 0.5 mph N0.8 kmh N 1.8 mph2.9 kmh 30.28 in1025.4 mb 0.00 in0.0 mm 0.00 in/hr0.0 mm/hr 0.00 in0.0 mm
12:56 PM 31.3°F-0.4°C 24.7°F-4.1°C 76% 1.1 mph N1.8 kmh N 2.5 mph4.0 kmh 30.28 in1025.4 mb 0.00 in0.0 mm 0.00 in/hr0.0 mm/hr 0.00 in0.0 mm
12:51 PM 31.5°F-0.3°C 24.9°F-3.9°C 76% 1.5 mph N2.4 kmh N 2.5 mph4.0 kmh 30.28 in1025.4 mb 0.00 in0.0 mm 0.00 in/hr0.0 mm/hr 0.00 in0.0 mm
12:46 PM 31.5°F-0.3°C 24.9°F-3.9°C 76% 0.8 mph N1.3 kmh N 1.6 mph2.6 kmh 30.28 in1025.4 mb 0.00 in0.0 mm 0.00 in/hr0.0 mm/hr 0.00 in0.0 mm
12:41 PM 31.3°F-0.4°C 24.7°F-4.1°C 76% 0.8 mph 1.3 kmh 2.7 mph4.3 kmh 30.28 in1025.4 mb 0.00 in0.0 mm 0.00 in/hr0.0 mm/hr 0.00 in0.0 mm
12:36 PM 31.3°F-0.4°C 24.7°F-4.1°C 76% 0.8 mph E1.3 kmh E 2.7 mph4.3 kmh 30.28 in1025.4 mb 0.00 in0.0 mm 0.00 in/hr0.0 mm/hr 0.00 in0.0 mm
12:31 PM 31.5°F-0.3°C 24.9°F-3.9°C 76% 1.5 mph N2.4 kmh N 2.0 mph3.2 kmh 30.28 in1025.4 mb 0.00 in0.0 mm 0.00 in/hr0.0 mm/hr 0.00 in0.0 mm
12:26 PM 31.7°F-0.2°C 25.0°F-3.9°C 76% 0.9 mph NE1.4 kmh NE 1.8 mph2.9 kmh 30.28 in1025.4 mb 0.00 in0.0 mm 0.00 in/hr0.0 mm/hr 0.00 in0.0 mm
12:21 PM 31.7°F-0.2°C 25.0°F-3.9°C 76% 0.7 mph N1.1 kmh N 1.6 mph2.6 kmh 30.29 in1025.7 mb 0.00 in0.0 mm 0.00 in/hr0.0 mm/hr 0.00 in0.0 mm
12:16 PM 31.9°F-0.1°C 25.2°F-3.8°C 76% 1.3 mph N2.1 kmh N 1.8 mph2.9 kmh 30.29 in1025.7 mb 0.00 in0.0 mm 0.00 in/hr0.0 mm/hr 0.00 in0.0 mm
12:11 PM 31.9°F-0.1°C 25.2°F-3.8°C 76% 0.8 mph SE1.3 kmh SE 1.8 mph2.9 kmh 30.29 in1025.7 mb 0.00 in0.0 mm 0.00 in/hr0.0 mm/hr 0.00 in0.0 mm
12:06 PM 31.7°F-0.2°C 25.0°F-3.9°C 76% 0.6 mph NNE1.0 kmh NNE 1.8 mph2.9 kmh 30.29 in1025.7 mb 0.00 in0.0 mm 0.00 in/hr0.0 mm/hr 0.00 in0.0 mm
12:01 PM 31.7°F-0.2°C 25.0°F-3.9°C 76% 0.4 mph N0.6 kmh N 1.8 mph2.9 kmh 30.29 in1025.7 mb 0.00 in0.0 mm 0.00 in/hr0.0 mm/hr 0.00 in0.0 mm
11:56 AM 31.7°F-0.2°C 25.0°F-3.9°C 76% 0.8 mph NE1.3 kmh NE 2.2 mph3.5 kmh 30.29 in1025.7 mb 0.00 in0.0 mm 0.00 in/hr0.0 mm/hr 0.00 in0.0 mm
11:51 AM 31.7°F-0.2°C 25.0°F-3.9°C 76% 1.4 mph NE2.3 kmh NE 2.2 mph3.5 kmh 30.29 in1025.7 mb 0.00 in0.0 mm 0.00 in/hr0.0 mm/hr 0.00 in0.0 mm
11:46 AM 31.7°F-0.2°C 25.0°F-3.9°C 76% 0.7 mph NE1.1 kmh NE 2.5 mph4.0 kmh 30.29 in1025.7 mb 0.00 in0.0 mm 0.00 in/hr0.0 mm/hr 0.00 in0.0 mm
11:41 AM 31.7°F-0.2°C 25.0°F-3.9°C 76% 0.8 mph NE1.3 kmh NE 2.7 mph4.3 kmh 30.29 in1025.7 mb 0.00 in0.0 mm 0.00 in/hr0.0 mm/hr 0.00 in0.0 mm
11:36 AM 31.9°F-0.1°C 25.2°F-3.8°C 76% 1.3 mph NNE2.1 kmh NNE 2.7 mph4.3 kmh 30.29 in1025.7 mb 0.00 in0.0 mm 0.00 in/hr0.0 mm/hr 0.00 in0.0 mm
11:31 AM 31.9°F-0.1°C 25.2°F-3.8°C 76% 1.1 mph ESE1.8 kmh ESE 2.2 mph3.5 kmh 30.29 in1025.7 mb 0.00 in0.0 mm 0.00 in/hr0.0 mm/hr 0.00 in0.0 mm
11:26 AM 31.7°F-0.2°C 24.3°F-4.3°C 74% 1.4 mph ESE2.3 kmh ESE 2.2 mph3.5 kmh 30.29 in1025.7 mb 0.00 in0.0 mm 0.00 in/hr0.0 mm/hr 0.00 in0.0 mm
11:21 AM 31.9°F-0.1°C 24.8°F-4.0°C 75% 0.8 mph SE1.3 kmh SE 1.6 mph2.6 kmh 30.29 in1025.7 mb 0.00 in0.0 mm 0.00 in/hr0.0 mm/hr 0.00 in0.0 mm
11:16 AM 31.7°F-0.2°C 24.7°F-4.1°C 75% 0.6 mph 1.0 kmh 1.8 mph2.9 kmh 30.30 in1026.1 mb 0.00 in0.0 mm 0.00 in/hr0.0 mm/hr 0.00 in0.0 mm
11:11 AM 31.7°F-0.2°C 24.7°F-4.1°C 75% 0.8 mph N1.3 kmh N 2.2 mph3.5 kmh 30.30 in1026.1 mb 0.00 in0.0 mm 0.00 in/hr0.0 mm/hr 0.00 in0.0 mm
11:06 AM 31.7°F-0.2°C 24.7°F-4.1°C 75% 0.7 mph NE1.1 kmh NE 2.5 mph4.0 kmh 30.30 in1026.1 mb 0.00 in0.0 mm 0.00 in/hr0.0 mm/hr 0.00 in0.0 mm
11:01 AM 31.9°F-0.1°C 24.8°F-4.0°C 75% 1.6 mph N2.6 kmh N 2.5 mph4.0 kmh 30.30 in1026.1 mb 0.00 in0.0 mm 0.00 in/hr0.0 mm/hr 0.00 in0.0 mm
10:56 AM 31.7°F-0.2°C 25.0°F-3.9°C 76% 0.6 mph NNE1.0 kmh NNE 1.6 mph2.6 kmh 30.30 in1026.1 mb 0.00 in0.0 mm 0.00 in/hr0.0 mm/hr 0.00 in0.0 mm
10:51 AM 31.7°F-0.2°C 25.0°F-3.9°C 76% 0.6 mph NE1.0 kmh NE 1.3 mph2.1 kmh 30.30 in1026.1 mb 0.00 in0.0 mm 0.00 in/hr0.0 mm/hr 0.00 in0.0 mm
10:46 AM 31.5°F-0.3°C 24.9°F-3.9°C 76% 0.5 mph NE0.8 kmh NE 1.8 mph2.9 kmh 30.31 in1026.4 mb 0.00 in0.0 mm 0.00 in/hr0.0 mm/hr 0.00 in0.0 mm
10:41 AM 31.5°F-0.3°C 24.9°F-3.9°C 76% 1.0 mph NNW1.6 kmh NNW 1.8 mph2.9 kmh 30.31 in1026.4 mb 0.00 in0.0 mm 0.00 in/hr0.0 mm/hr 0.00 in0.0 mm
10:36 AM 31.5°F-0.3°C 24.9°F-3.9°C 76% 0.6 mph 1.0 kmh 1.8 mph2.9 kmh 30.31 in1026.4 mb 0.00 in0.0 mm 0.00 in/hr0.0 mm/hr 0.00 in0.0 mm
10:31 AM 31.5°F-0.3°C 24.9°F-3.9°C 76% 0.7 mph NE1.1 kmh NE 2.0 mph3.2 kmh 30.31 in1026.4 mb 0.00 in0.0 mm 0.00 in/hr0.0 mm/hr 0.00 in0.0 mm
10:26 AM 31.5°F-0.3°C 24.9°F-3.9°C 76% 1.0 mph NE1.6 kmh NE 2.0 mph3.2 kmh 30.31 in1026.4 mb 0.00 in0.0 mm 0.00 in/hr0.0 mm/hr 0.00 in0.0 mm
10:21 AM 31.5°F-0.3°C 24.9°F-3.9°C 76% 0.6 mph N1.0 kmh N 2.0 mph3.2 kmh 30.31 in1026.4 mb 0.00 in0.0 mm 0.00 in/hr0.0 mm/hr 0.00 in0.0 mm
10:16 AM 31.5°F-0.3°C 24.9°F-3.9°C 76% 1.1 mph N1.8 kmh N 1.8 mph2.9 kmh 30.31 in1026.4 mb 0.00 in0.0 mm 0.00 in/hr0.0 mm/hr 0.00 in0.0 mm
10:11 AM 31.3°F-0.4°C 24.7°F-4.1°C 76% 0.9 mph NNE1.4 kmh NNE 1.8 mph2.9 kmh 30.31 in1026.4 mb 0.00 in0.0 mm 0.00 in/hr0.0 mm/hr 0.00 in0.0 mm
10:06 AM 31.3°F-0.4°C 24.7°F-4.1°C 76% 0.8 mph N1.3 kmh N 1.1 mph1.8 kmh 30.31 in1026.4 mb 0.00 in0.0 mm 0.00 in/hr0.0 mm/hr 0.00 in0.0 mm
10:01 AM 31.3°F-0.4°C 24.7°F-4.1°C 76% 0.5 mph 0.8 kmh 1.3 mph2.1 kmh 30.31 in1026.4 mb 0.00 in0.0 mm 0.00 in/hr0.0 mm/hr 0.00 in0.0 mm
09:55 AM 31.1°F-0.5°C 24.5°F-4.2°C 76% 1.0 mph N1.6 kmh N 2.0 mph3.2 kmh 30.31 in1026.4 mb 0.00 in0.0 mm 0.00 in/hr0.0 mm/hr 0.00 in0.0 mm
09:50 AM 31.0°F-0.6°C 24.3°F-4.3°C 76% 1.0 mph N1.6 kmh N 2.2 mph3.5 kmh 30.31 in1026.4 mb 0.00 in0.0 mm 0.00 in/hr0.0 mm/hr 0.00 in0.0 mm
09:45 AM 31.0°F-0.6°C 24.3°F-4.3°C 76% 1.7 mph N2.7 kmh N 2.2 mph3.5 kmh 30.31 in1026.4 mb 0.00 in0.0 mm 0.00 in/hr0.0 mm/hr 0.00 in0.0 mm
09:40 AM 31.0°F-0.6°C 24.6°F-4.1°C 77% 1.4 mph NNE2.3 kmh NNE 2.2 mph3.5 kmh 30.30 in1026.1 mb 0.00 in0.0 mm 0.00 in/hr0.0 mm/hr 0.00 in0.0 mm
09:35 AM 31.0°F-0.6°C 24.9°F-3.9°C 78% 0.8 mph N1.3 kmh N 1.6 mph2.6 kmh 30.31 in1026.4 mb 0.00 in0.0 mm 0.00 in/hr0.0 mm/hr 0.00 in0.0 mm
09:30 AM 31.0°F-0.6°C 24.9°F-3.9°C 78% 1.0 mph N1.6 kmh N 1.8 mph2.9 kmh 30.31 in1026.4 mb 0.00 in0.0 mm 0.00 in/hr0.0 mm/hr 0.00 in0.0 mm
09:25 AM 31.0°F-0.6°C 24.9°F-3.9°C 78% 1.2 mph N1.9 kmh N 1.8 mph2.9 kmh 30.30 in1026.1 mb 0.00 in0.0 mm 0.00 in/hr0.0 mm/hr 0.00 in0.0 mm
09:20 AM 31.0°F-0.6°C 25.2°F-3.8°C 79% 0.8 mph N1.3 kmh N 1.1 mph1.8 kmh 30.30 in1026.1 mb 0.00 in0.0 mm 0.00 in/hr0.0 mm/hr 0.00 in0.0 mm
09:15 AM 30.8°F-0.7°C 25.0°F-3.9°C 79% 0.4 mph NNE0.6 kmh NNE 1.6 mph2.6 kmh 30.30 in1026.1 mb 0.00 in0.0 mm 0.00 in/hr0.0 mm/hr 0.00 in0.0 mm
09:10 AM 30.8°F-0.7°C 25.0°F-3.9°C 79% 0.6 mph N1.0 kmh N 1.6 mph2.6 kmh 30.30 in1026.1 mb 0.00 in0.0 mm 0.00 in/hr0.0 mm/hr 0.00 in0.0 mm
09:05 AM 30.8°F-0.7°C 25.0°F-3.9°C 79% 0.4 mph 0.6 kmh 1.1 mph1.8 kmh 30.30 in1026.1 mb 0.00 in0.0 mm 0.00 in/hr0.0 mm/hr 0.00 in0.0 mm
09:00 AM 30.6°F-0.8°C 24.8°F-4.0°C 79% 0.5 mph 0.8 kmh 1.1 mph1.8 kmh 30.30 in1026.1 mb 0.00 in0.0 mm 0.00 in/hr0.0 mm/hr 0.00 in0.0 mm
08:55 AM 30.4°F-0.9°C 25.0°F-3.9°C 80% 0.7 mph N1.1 kmh N 1.1 mph1.8 kmh 30.30 in1026.1 mb 0.00 in0.0 mm 0.00 in/hr0.0 mm/hr 0.00 in0.0 mm
08:50 AM 30.4°F-0.9°C 25.0°F-3.9°C 80% 0.4 mph N0.6 kmh N 1.6 mph2.6 kmh 30.30 in1026.1 mb 0.00 in0.0 mm 0.00 in/hr0.0 mm/hr 0.00 in0.0 mm
08:45 AM 30.2°F-1.0°C 24.8°F-4.0°C 80% 0.7 mph 1.1 kmh 1.6 mph2.6 kmh 30.29 in1025.7 mb 0.00 in0.0 mm 0.00 in/hr0.0 mm/hr 0.00 in0.0 mm
08:40 AM 30.2°F-1.0°C 24.8°F-4.0°C 80% 0.6 mph 1.0 kmh 1.3 mph2.1 kmh 30.30 in1026.1 mb 0.00 in0.0 mm 0.00 in/hr0.0 mm/hr 0.00 in0.0 mm
08:35 AM 30.2°F-1.0°C 24.8°F-4.0°C 80% 0.8 mph 1.3 kmh 2.0 mph3.2 kmh 30.29 in1025.7 mb 0.00 in0.0 mm 0.00 in/hr0.0 mm/hr 0.00 in0.0 mm
08:30 AM 30.2°F-1.0°C 24.8°F-4.0°C 80% 1.2 mph N1.9 kmh N 2.0 mph3.2 kmh 30.29 in1025.7 mb 0.00 in0.0 mm 0.00 in/hr0.0 mm/hr 0.00 in0.0 mm
08:24 AM 30.2°F-1.0°C 24.8°F-4.0°C 80% 0.8 mph N1.3 kmh N 2.5 mph4.0 kmh 30.29 in1025.7 mb 0.00 in0.0 mm 0.00 in/hr0.0 mm/hr 0.00 in0.0 mm
08:20 AM 30.2°F-1.0°C 24.8°F-4.0°C 80% 0.8 mph 1.3 kmh 2.5 mph4.0 kmh 30.29 in1025.7 mb 0.00 in0.0 mm 0.00 in/hr0.0 mm/hr 0.00 in0.0 mm
08:15 AM 30.2°F-1.0°C 24.8°F-4.0°C 80% 0.4 mph NNE0.6 kmh NNE 1.3 mph2.1 kmh 30.29 in1025.7 mb 0.00 in0.0 mm 0.00 in/hr0.0 mm/hr 0.00 in0.0 mm
08:09 AM 30.1°F-1.1°C 24.7°F-4.1°C 80% 0.6 mph 1.0 kmh 2.5 mph4.0 kmh 30.28 in1025.4 mb 0.00 in0.0 mm 0.00 in/hr0.0 mm/hr 0.00 in0.0 mm
08:04 AM 30.2°F-1.0°C 24.5°F-4.2°C 79% 1.0 mph NNW1.6 kmh NNW 2.5 mph4.0 kmh 30.28 in1025.4 mb 0.00 in0.0 mm 0.00 in/hr0.0 mm/hr 0.00 in0.0 mm
07:59 AM 30.4°F-0.9°C 24.7°F-4.1°C 79% 1.3 mph N2.1 kmh N 2.2 mph3.5 kmh 30.28 in1025.4 mb 0.00 in0.0 mm 0.00 in/hr0.0 mm/hr 0.00 in0.0 mm
07:54 AM 30.4°F-0.9°C 24.7°F-4.1°C 79% 1.4 mph N2.3 kmh N 2.2 mph3.5 kmh 30.28 in1025.4 mb 0.00 in0.0 mm 0.00 in/hr0.0 mm/hr 0.00 in0.0 mm
07:49 AM 30.6°F-0.8°C 24.8°F-4.0°C 79% 0.6 mph N1.0 kmh N 2.0 mph3.2 kmh 30.28 in1025.4 mb 0.00 in0.0 mm 0.00 in/hr0.0 mm/hr 0.00 in0.0 mm
07:44 AM 30.6°F-0.8°C 25.2°F-3.8°C 80% 1.0 mph NNE1.6 kmh NNE 2.0 mph3.2 kmh 30.28 in1025.4 mb 0.00 in0.0 mm 0.00 in/hr0.0 mm/hr 0.00 in0.0 mm
07:39 AM 30.8°F-0.7°C 25.0°F-3.9°C 79% 0.4 mph 0.6 kmh 1.1 mph1.8 kmh 30.28 in1025.4 mb 0.00 in0.0 mm 0.00 in/hr0.0 mm/hr 0.00 in0.0 mm
07:34 AM 30.8°F-0.7°C 25.0°F-3.9°C 79% 0.4 mph 0.6 kmh 2.2 mph3.5 kmh 30.28 in1025.4 mb 0.00 in0.0 mm 0.00 in/hr0.0 mm/hr 0.00 in0.0 mm
07:29 AM 30.8°F-0.7°C 25.0°F-3.9°C 79% 1.4 mph N2.3 kmh N 2.2 mph3.5 kmh 30.28 in1025.4 mb 0.00 in0.0 mm 0.00 in/hr0.0 mm/hr 0.00 in0.0 mm
07:24 AM 30.8°F-0.7°C 25.0°F-3.9°C 79% 0.6 mph N1.0 kmh N 2.0 mph3.2 kmh 30.28 in1025.4 mb 0.00 in0.0 mm 0.00 in/hr0.0 mm/hr 0.00 in0.0 mm
07:19 AM 30.8°F-0.7°C 25.0°F-3.9°C 79% 0.6 mph 1.0 kmh 2.0 mph3.2 kmh 30.28 in1025.4 mb 0.00 in0.0 mm 0.00 in/hr0.0 mm/hr 0.00 in0.0 mm
07:14 AM 30.8°F-0.7°C 25.0°F-3.9°C 79% 0.8 mph NNW1.3 kmh NNW 1.8 mph2.9 kmh 30.28 in1025.4 mb 0.00 in0.0 mm 0.00 in/hr0.0 mm/hr 0.00 in0.0 mm
07:09 AM 31.0°F-0.6°C 25.2°F-3.8°C 79% Calm Calm -- 30.28 in1025.4 mb 0.00 in0.0 mm 0.00 in/hr0.0 mm/hr 0.00 in0.0 mm
07:04 AM 31.0°F-0.6°C 25.2°F-3.8°C 79% Calm Calm 0.9 mph1.4 kmh 30.27 in1025.1 mb 0.00 in0.0 mm 0.00 in/hr0.0 mm/hr 0.00 in0.0 mm
06:59 AM 31.0°F-0.6°C 25.2°F-3.8°C 79% Calm Calm 0.9 mph1.4 kmh 30.27 in1025.1 mb 0.00 in0.0 mm 0.00 in/hr0.0 mm/hr 0.00 in0.0 mm
06:54 AM 31.0°F-0.6°C 25.2°F-3.8°C 79% 0.2 mph 0.3 kmh 0.7 mph1.1 kmh 30.27 in1025.1 mb 0.00 in0.0 mm 0.00 in/hr0.0 mm/hr 0.00 in0.0 mm
06:49 AM 31.0°F-0.6°C 25.2°F-3.8°C 79% 0.4 mph 0.6 kmh 1.8 mph2.9 kmh 30.27 in1025.1 mb 0.00 in0.0 mm 0.00 in/hr0.0 mm/hr 0.00 in0.0 mm
06:44 AM 31.0°F-0.6°C 25.6°F-3.6°C 80% 0.6 mph 1.0 kmh 1.8 mph2.9 kmh 30.27 in1025.1 mb 0.00 in0.0 mm 0.00 in/hr0.0 mm/hr 0.00 in0.0 mm
06:39 AM 30.8°F-0.7°C 25.4°F-3.7°C 80% 1.1 mph NE1.8 kmh NE 1.8 mph2.9 kmh 30.26 in1024.7 mb 0.00 in0.0 mm 0.00 in/hr0.0 mm/hr 0.00 in0.0 mm
06:34 AM 30.8°F-0.7°C 25.7°F-3.5°C 81% 0.2 mph 0.3 kmh 0.7 mph1.1 kmh 30.26 in1024.7 mb 0.00 in0.0 mm 0.00 in/hr0.0 mm/hr 0.00 in0.0 mm
06:29 AM 30.8°F-0.7°C 25.7°F-3.5°C 81% 0.3 mph NNE0.5 kmh NNE 0.4 mph0.6 kmh 30.26 in1024.7 mb 0.00 in0.0 mm 0.00 in/hr0.0 mm/hr 0.00 in0.0 mm
06:24 AM 30.8°F-0.7°C 25.7°F-3.5°C 81% Calm Calm 1.1 mph1.8 kmh 30.26 in1024.7 mb 0.00 in0.0 mm 0.00 in/hr0.0 mm/hr 0.00 in0.0 mm
06:19 AM 31.0°F-0.6°C 25.8°F-3.4°C 81% 0.2 mph 0.3 kmh 1.1 mph1.8 kmh 30.26 in1024.7 mb 0.00 in0.0 mm 0.00 in/hr0.0 mm/hr 0.00 in0.0 mm
06:14 AM 31.0°F-0.6°C 25.6°F-3.6°C 80% 0.3 mph 0.5 kmh 0.4 mph0.6 kmh 30.26 in1024.7 mb 0.00 in0.0 mm 0.00 in/hr0.0 mm/hr 0.00 in0.0 mm
06:09 AM 30.8°F-0.7°C 25.4°F-3.7°C 80% 0.3 mph 0.5 kmh 1.3 mph2.1 kmh 30.26 in1024.7 mb 0.00 in0.0 mm 0.00 in/hr0.0 mm/hr 0.00 in0.0 mm
06:04 AM 31.0°F-0.6°C 25.6°F-3.6°C 80% 0.3 mph 0.5 kmh 1.3 mph2.1 kmh 30.26 in1024.7 mb 0.00 in0.0 mm 0.00 in/hr0.0 mm/hr 0.00 in0.0 mm
05:59 AM 30.8°F-0.7°C 25.4°F-3.7°C 80% 0.3 mph 0.5 kmh 0.7 mph1.1 kmh 30.26 in1024.7 mb 0.00 in0.0 mm 0.00 in/hr0.0 mm/hr 0.00 in0.0 mm
05:54 AM 30.8°F-0.7°C 25.4°F-3.7°C 80% 0.4 mph NE0.6 kmh NE 0.7 mph1.1 kmh 30.25 in1024.4 mb 0.00 in0.0 mm 0.00 in/hr0.0 mm/hr 0.00 in0.0 mm
05:49 AM 30.6°F-0.8°C 25.2°F-3.8°C 80% 0.3 mph 0.5 kmh 0.4 mph0.6 kmh 30.25 in1024.4 mb 0.00 in0.0 mm 0.00 in/hr0.0 mm/hr 0.00 in0.0 mm
05:44 AM 30.6°F-0.8°C 25.2°F-3.8°C 80% Calm Calm -- 30.25 in1024.4 mb 0.00 in0.0 mm 0.00 in/hr0.0 mm/hr 0.00 in0.0 mm
05:39 AM 30.6°F-0.8°C 25.2°F-3.8°C 80% Calm Calm -- 30.25 in1024.4 mb 0.00 in0.0 mm 0.00 in/hr0.0 mm/hr 0.00 in0.0 mm
05:34 AM 30.6°F-0.8°C 25.2°F-3.8°C 80% Calm Calm -- 30.25 in1024.4 mb 0.00 in0.0 mm 0.00 in/hr0.0 mm/hr 0.00 in0.0 mm
05:29 AM 30.6°F-0.8°C 24.8°F-4.0°C 79% Calm Calm -- 30.25 in1024.4 mb 0.00 in0.0 mm 0.00 in/hr0.0 mm/hr 0.00 in0.0 mm
05:24 AM 30.6°F-0.8°C 24.8°F-4.0°C 79% Calm Calm -- 30.25 in1024.4 mb 0.00 in0.0 mm 0.00 in/hr0.0 mm/hr 0.00 in0.0 mm
05:19 AM 30.8°F-0.7°C 25.0°F-3.9°C 79% Calm Calm 0.2 mph0.3 kmh 30.25 in1024.4 mb 0.00 in0.0 mm 0.00 in/hr0.0 mm/hr 0.00 in0.0 mm
05:14 AM 30.8°F-0.7°C 25.0°F-3.9°C 79% Calm Calm 0.2 mph0.3 kmh 30.25 in1024.4 mb 0.00 in0.0 mm 0.00 in/hr0.0 mm/hr 0.00 in0.0 mm
05:09 AM 30.8°F-0.7°C 25.0°F-3.9°C 79% Calm Calm -- 30.25 in1024.4 mb 0.00 in0.0 mm 0.00 in/hr0.0 mm/hr 0.00 in0.0 mm
05:04 AM 30.8°F-0.7°C 25.0°F-3.9°C 79% Calm Calm -- 30.25 in1024.4 mb 0.00 in0.0 mm 0.00 in/hr0.0 mm/hr 0.00 in0.0 mm
04:59 AM 30.8°F-0.7°C 24.8°F-4.0°C 78% Calm Calm -- 30.25 in1024.4 mb 0.00 in0.0 mm 0.00 in/hr0.0 mm/hr 0.00 in0.0 mm
04:54 AM 30.8°F-0.7°C 24.8°F-4.0°C 78% Calm Calm -- 30.25 in1024.4 mb 0.00 in0.0 mm 0.00 in/hr0.0 mm/hr 0.00 in0.0 mm
04:49 AM 31.0°F-0.6°C 24.9°F-3.9°C 78% Calm Calm 0.4 mph0.6 kmh 30.25 in1024.4 mb 0.00 in0.0 mm 0.00 in/hr0.0 mm/hr 0.00 in0.0 mm
04:44 AM 31.0°F-0.6°C 24.9°F-3.9°C 78% 0.2 mph NE0.3 kmh NE 0.4 mph0.6 kmh 30.25 in1024.4 mb 0.00 in0.0 mm 0.00 in/hr0.0 mm/hr 0.00 in0.0 mm
04:39 AM 31.0°F-0.6°C 24.9°F-3.9°C 78% Calm Calm 1.1 mph1.8 kmh 30.25 in1024.4 mb 0.00 in0.0 mm 0.00 in/hr0.0 mm/hr 0.00 in0.0 mm
04:33 AM 31.0°F-0.6°C 24.6°F-4.1°C 77% 0.5 mph E0.8 kmh E 1.1 mph1.8 kmh 30.25 in1024.4 mb 0.00 in0.0 mm 0.00 in/hr0.0 mm/hr 0.00 in0.0 mm
04:26 AM 31.0°F-0.6°C 24.9°F-3.9°C 78% 0.4 mph ESE0.6 kmh ESE 1.3 mph2.1 kmh 30.25 in1024.4 mb 0.00 in0.0 mm 0.00 in/hr0.0 mm/hr 0.00 in0.0 mm
04:21 AM 31.0°F-0.6°C 24.9°F-3.9°C 78% 0.2 mph 0.3 kmh 1.3 mph2.1 kmh 30.25 in1024.4 mb 0.00 in0.0 mm 0.00 in/hr0.0 mm/hr 0.00 in0.0 mm
04:16 AM 31.0°F-0.6°C 24.9°F-3.9°C 78% 0.4 mph NNE0.6 kmh NNE 3.1 mph5.0 kmh 30.25 in1024.4 mb 0.00 in0.0 mm 0.00 in/hr0.0 mm/hr 0.00 in0.0 mm
04:11 AM 31.0°F-0.6°C 24.9°F-3.9°C 78% 1.5 mph E2.4 kmh E 3.1 mph5.0 kmh 30.25 in1024.4 mb 0.00 in0.0 mm 0.00 in/hr0.0 mm/hr 0.00 in0.0 mm
04:06 AM 30.8°F-0.7°C 25.0°F-3.9°C 79% 0.3 mph E0.5 kmh E 1.6 mph2.6 kmh 30.25 in1024.4 mb 0.00 in0.0 mm 0.00 in/hr0.0 mm/hr 0.00 in0.0 mm
04:01 AM 30.8°F-0.7°C 25.0°F-3.9°C 79% 0.9 mph E1.4 kmh E 1.6 mph2.6 kmh 30.25 in1024.4 mb 0.00 in0.0 mm 0.00 in/hr0.0 mm/hr 0.00 in0.0 mm
03:56 AM 30.8°F-0.7°C 25.0°F-3.9°C 79% 0.4 mph 0.6 kmh 1.1 mph1.8 kmh 30.24 in1024.0 mb 0.00 in0.0 mm 0.00 in/hr0.0 mm/hr 0.00 in0.0 mm
03:51 AM 31.0°F-0.6°C 25.2°F-3.8°C 79% 0.2 mph 0.3 kmh 0.4 mph0.6 kmh 30.25 in1024.4 mb 0.00 in0.0 mm 0.00 in/hr0.0 mm/hr 0.00 in0.0 mm
03:46 AM 31.0°F-0.6°C 25.2°F-3.8°C 79% 0.4 mph 0.6 kmh 0.4 mph0.6 kmh 30.25 in1024.4 mb 0.00 in0.0 mm 0.00 in/hr0.0 mm/hr 0.00 in0.0 mm
03:41 AM 30.8°F-0.7°C 25.0°F-3.9°C 79% Calm Calm 0.4 mph0.6 kmh 30.24 in1024.0 mb 0.00 in0.0 mm 0.00 in/hr0.0 mm/hr 0.00 in0.0 mm
03:36 AM 31.0°F-0.6°C 24.9°F-3.9°C 78% 0.4 mph 0.6 kmh 0.4 mph0.6 kmh 30.24 in1024.0 mb 0.00 in0.0 mm 0.00 in/hr0.0 mm/hr 0.00 in0.0 mm
03:31 AM 31.0°F-0.6°C 24.9°F-3.9°C 78% Calm Calm 0.4 mph0.6 kmh 30.24 in1024.0 mb 0.00 in0.0 mm 0.00 in/hr0.0 mm/hr 0.00 in0.0 mm
03:24 AM 31.0°F-0.6°C 24.9°F-3.9°C 78% Calm Calm -- 30.24 in1024.0 mb 0.00 in0.0 mm 0.00 in/hr0.0 mm/hr 0.00 in0.0 mm
03:18 AM 31.0°F-0.6°C 24.9°F-3.9°C 78% Calm Calm 1.1 mph1.8 kmh 30.24 in1024.0 mb 0.00 in0.0 mm 0.00 in/hr0.0 mm/hr 0.00 in0.0 mm
03:13 AM 31.0°F-0.6°C 24.9°F-3.9°C 78% 0.3 mph 0.5 kmh 1.1 mph1.8 kmh 30.24 in1024.0 mb 0.00 in0.0 mm 0.00 in/hr0.0 mm/hr 0.00 in0.0 mm
03:08 AM 31.0°F-0.6°C 24.9°F-3.9°C 78% 0.5 mph N0.8 kmh N 1.1 mph1.8 kmh 30.24 in1024.0 mb 0.00 in0.0 mm 0.00 in/hr0.0 mm/hr 0.00 in0.0 mm
03:03 AM 31.0°F-0.6°C 24.9°F-3.9°C 78% 0.9 mph SE1.4 kmh SE 1.6 mph2.6 kmh 30.24 in1024.0 mb 0.00 in0.0 mm 0.00 in/hr0.0 mm/hr 0.00 in0.0 mm
02:58 AM 31.0°F-0.6°C 24.9°F-3.9°C 78% 0.8 mph ESE1.3 kmh ESE 1.8 mph2.9 kmh 30.24 in1024.0 mb 0.00 in0.0 mm 0.00 in/hr0.0 mm/hr 0.00 in0.0 mm
02:53 AM 31.0°F-0.6°C 24.9°F-3.9°C 78% 0.6 mph 1.0 kmh 2.2 mph3.5 kmh 30.24 in1024.0 mb 0.00 in0.0 mm 0.00 in/hr0.0 mm/hr 0.00 in0.0 mm
02:48 AM 31.0°F-0.6°C 24.9°F-3.9°C 78% 0.4 mph NNE0.6 kmh NNE 2.2 mph3.5 kmh 30.24 in1024.0 mb 0.00 in0.0 mm 0.00 in/hr0.0 mm/hr 0.00 in0.0 mm
02:43 AM 31.0°F-0.6°C 25.2°F-3.8°C 79% 0.3 mph NE0.5 kmh NE 1.6 mph2.6 kmh 30.24 in1024.0 mb 0.00 in0.0 mm 0.00 in/hr0.0 mm/hr 0.00 in0.0 mm
02:38 AM 31.0°F-0.6°C 25.2°F-3.8°C 79% 0.9 mph N1.4 kmh N 2.0 mph3.2 kmh 30.24 in1024.0 mb 0.00 in0.0 mm 0.00 in/hr0.0 mm/hr 0.00 in0.0 mm
02:33 AM 31.0°F-0.6°C 25.2°F-3.8°C 79% 1.1 mph N1.8 kmh N 2.0 mph3.2 kmh 30.24 in1024.0 mb 0.00 in0.0 mm 0.00 in/hr0.0 mm/hr 0.00 in0.0 mm
02:28 AM 31.0°F-0.6°C 25.2°F-3.8°C 79% 0.4 mph ENE0.6 kmh ENE 1.1 mph1.8 kmh 30.24 in1024.0 mb 0.00 in0.0 mm 0.00 in/hr0.0 mm/hr 0.00 in0.0 mm
02:23 AM 31.0°F-0.6°C 25.2°F-3.8°C 79% 0.7 mph E1.1 kmh E 1.1 mph1.8 kmh 30.24 in1024.0 mb 0.00 in0.0 mm 0.00 in/hr0.0 mm/hr 0.00 in0.0 mm
02:18 AM 31.0°F-0.6°C 25.2°F-3.8°C 79% 0.5 mph 0.8 kmh 1.1 mph1.8 kmh 30.24 in1024.0 mb 0.00 in0.0 mm 0.00 in/hr0.0 mm/hr 0.00 in0.0 mm
02:13 AM 31.0°F-0.6°C 25.2°F-3.8°C 79% 0.3 mph SE0.5 kmh SE 1.1 mph1.8 kmh 30.24 in1024.0 mb 0.00 in0.0 mm 0.00 in/hr0.0 mm/hr 0.00 in0.0 mm
02:08 AM 31.0°F-0.6°C 25.2°F-3.8°C 79% 0.4 mph NNE0.6 kmh NNE 0.9 mph1.4 kmh 30.24 in1024.0 mb 0.00 in0.0 mm 0.00 in/hr0.0 mm/hr 0.00 in0.0 mm
02:03 AM 31.0°F-0.6°C 25.2°F-3.8°C 79% 0.5 mph NNE0.8 kmh NNE 0.9 mph1.4 kmh 30.23 in1023.7 mb 0.00 in0.0 mm 0.00 in/hr0.0 mm/hr 0.00 in0.0 mm
01:58 AM 31.0°F-0.6°C 25.2°F-3.8°C 79% Calm Calm 1.1 mph1.8 kmh 30.23 in1023.7 mb 0.00 in0.0 mm 0.00 in/hr0.0 mm/hr 0.00 in0.0 mm
01:53 AM 31.1°F-0.5°C 25.4°F-3.7°C 79% 0.4 mph ESE0.6 kmh ESE 1.1 mph1.8 kmh 30.23 in1023.7 mb 0.00 in0.0 mm 0.00 in/hr0.0 mm/hr 0.00 in0.0 mm
01:48 AM 31.1°F-0.5°C 25.4°F-3.7°C 79% 0.5 mph NE0.8 kmh NE 0.9 mph1.4 kmh 30.23 in1023.7 mb 0.00 in0.0 mm 0.00 in/hr0.0 mm/hr 0.00 in0.0 mm
01:43 AM 31.1°F-0.5°C 25.4°F-3.7°C 79% 0.5 mph N0.8 kmh N 1.8 mph2.9 kmh 30.23 in1023.7 mb 0.00 in0.0 mm 0.00 in/hr0.0 mm/hr 0.00 in0.0 mm
01:38 AM 31.1°F-0.5°C 25.4°F-3.7°C 79% 0.5 mph ENE0.8 kmh ENE 1.8 mph2.9 kmh 30.23 in1023.7 mb 0.00 in0.0 mm 0.00 in/hr0.0 mm/hr 0.00 in0.0 mm
01:33 AM 31.1°F-0.5°C 25.4°F-3.7°C 79% 0.6 mph NNE1.0 kmh NNE 1.6 mph2.6 kmh 30.23 in1023.7 mb 0.00 in0.0 mm 0.00 in/hr0.0 mm/hr 0.00 in0.0 mm
01:28 AM 31.1°F-0.5°C 25.4°F-3.7°C 79% 0.7 mph N1.1 kmh N 1.6 mph2.6 kmh 30.23 in1023.7 mb 0.00 in0.0 mm 0.00 in/hr0.0 mm/hr 0.00 in0.0 mm
01:23 AM 31.1°F-0.5°C 25.4°F-3.7°C 79% 0.8 mph E1.3 kmh E 1.8 mph2.9 kmh 30.23 in1023.7 mb 0.00 in0.0 mm 0.00 in/hr0.0 mm/hr 0.00 in0.0 mm
01:18 AM 31.1°F-0.5°C 25.4°F-3.7°C 79% 0.6 mph N1.0 kmh N 1.8 mph2.9 kmh 30.23 in1023.7 mb 0.00 in0.0 mm 0.00 in/hr0.0 mm/hr 0.00 in0.0 mm
01:13 AM 31.1°F-0.5°C 25.7°F-3.5°C 80% 1.0 mph NNE1.6 kmh NNE 1.3 mph2.1 kmh 30.23 in1023.7 mb 0.00 in0.0 mm 0.00 in/hr0.0 mm/hr 0.00 in0.0 mm
01:08 AM 31.1°F-0.5°C 25.4°F-3.7°C 79% Calm Calm 0.2 mph0.3 kmh 30.23 in1023.7 mb 0.00 in0.0 mm 0.00 in/hr0.0 mm/hr 0.00 in0.0 mm
01:03 AM 31.1°F-0.5°C 25.4°F-3.7°C 79% Calm Calm 0.7 mph1.1 kmh 30.23 in1023.7 mb 0.00 in0.0 mm 0.00 in/hr0.0 mm/hr 0.00 in0.0 mm
12:58 AM 31.3°F-0.4°C 25.6°F-3.6°C 79% 0.2 mph E0.3 kmh E 1.6 mph2.6 kmh 30.23 in1023.7 mb 0.00 in0.0 mm 0.00 in/hr0.0 mm/hr 0.00 in0.0 mm
12:53 AM 31.3°F-0.4°C 25.6°F-3.6°C 79% 0.7 mph ESE1.1 kmh ESE 1.6 mph2.6 kmh 30.23 in1023.7 mb 0.00 in0.0 mm 0.00 in/hr0.0 mm/hr 0.00 in0.0 mm
12:48 AM 31.3°F-0.4°C 25.6°F-3.6°C 79% 0.7 mph E1.1 kmh E 1.8 mph2.9 kmh 30.23 in1023.7 mb 0.00 in0.0 mm 0.00 in/hr0.0 mm/hr 0.00 in0.0 mm
12:43 AM 31.3°F-0.4°C 25.6°F-3.6°C 79% Calm Calm 1.8 mph2.9 kmh 30.23 in1023.7 mb 0.00 in0.0 mm 0.00 in/hr0.0 mm/hr 0.00 in0.0 mm
12:38 AM 31.3°F-0.4°C 25.6°F-3.6°C 79% 0.2 mph ENE0.3 kmh ENE 0.2 mph0.3 kmh 30.23 in1023.7 mb 0.00 in0.0 mm 0.00 in/hr0.0 mm/hr 0.00 in0.0 mm
12:33 AM 31.3°F-0.4°C 25.6°F-3.6°C 79% Calm Calm 1.1 mph1.8 kmh 30.23 in1023.7 mb 0.00 in0.0 mm 0.00 in/hr0.0 mm/hr 0.00 in0.0 mm
12:28 AM 31.3°F-0.4°C 25.3°F-3.7°C 78% Calm Calm 1.3 mph2.1 kmh 30.23 in1023.7 mb 0.00 in0.0 mm 0.00 in/hr0.0 mm/hr 0.00 in0.0 mm
12:23 AM 31.3°F-0.4°C 25.3°F-3.7°C 78% 0.4 mph E0.6 kmh E 1.6 mph2.6 kmh 30.23 in1023.7 mb 0.00 in0.0 mm 0.00 in/hr0.0 mm/hr 0.00 in0.0 mm
12:18 AM 31.5°F-0.3°C 25.5°F-3.6°C 78% 0.5 mph NNW0.8 kmh NNW 3.1 mph5.0 kmh 30.23 in1023.7 mb 0.00 in0.0 mm 0.00 in/hr0.0 mm/hr 0.00 in0.0 mm
12:13 AM 31.5°F-0.3°C 25.5°F-3.6°C 78% 0.9 mph E1.4 kmh E 3.1 mph5.0 kmh 30.23 in1023.7 mb 0.00 in0.0 mm 0.00 in/hr0.0 mm/hr 0.00 in0.0 mm
12:08 AM 31.5°F-0.3°C 25.7°F-3.5°C 79% 1.0 mph NE1.6 kmh NE 2.9 mph4.7 kmh 30.23 in1023.7 mb 0.00 in0.0 mm 0.00 in/hr0.0 mm/hr 0.00 in0.0 mm
12:03 AM 31.5°F-0.3°C 25.7°F-3.5°C 79% 0.5 mph N0.8 kmh N 1.8 mph2.9 kmh 30.23 in1023.7 mb 0.00 in0.0 mm 0.00 in/hr0.0 mm/hr 0.00 in0.0 mm